Time;durP1;ratioP1;P1;durP2;ratioP2;P2;SDS_P1;SDS_P2;PMS_P1;PMS_P2;Temp;Humidity;BMP_temperature;BMP_pressure;BME280_temperature;BME280_humidity;BME280_pressure;Samples;Min_cycle;Max_cycle;Signal;HPM_P1;HPM_P2
2021/07/13 00:02:00;;;;;;;7.68;4.90;;;;;;;;;;5041758;28;20114;-75
2021/07/13 00:04:25;;;;;;;9.13;4.75;;;;;;;;;;5039480;28;20034;-74
2021/07/13 00:06:51;;;;;;;10.35;5.13;;;;;;;;;;5043858;28;20034;-74
2021/07/13 00:09:19;;;;;;;7.53;4.65;;;;;;;;;;5041938;28;20811;-74
2021/07/13 00:11:45;;;;;;;7.32;3.83;;;;;;;;;;5038160;28;20021;-74
2021/07/13 00:14:11;;;;;;;7.07;3.70;;;;;;;;;;5040630;28;20037;-74
2021/07/13 00:16:37;;;;;;;5.90;3.60;;;;;;;;;;5042706;28;20059;-75
2021/07/13 00:19:03;;;;;;;4.18;3.03;;;;;;;;;;5041339;28;20063;-75
2021/07/13 00:21:28;;;;;;;5.15;2.78;;;;;;;;;;5039111;28;20028;-74
2021/07/13 00:23:54;;;;;;;5.03;2.75;;;;;;;;;;5046341;28;20536;-75
2021/07/13 00:26:19;;;;;;;5.30;2.70;;;;;;;;;;5035915;28;20425;-74
2021/07/13 00:28:44;;;;;;;4.90;2.45;;;;;;;;;;5044013;28;20029;-74
2021/07/13 00:31:10;;;;;;;5.90;2.50;;;;;;;;;;5044558;28;20024;-74
2021/07/13 00:33:35;;;;;;;4.63;2.42;;;;;;;;;;5046093;28;20247;-74
2021/07/13 00:36:01;;;;;;;4.88;2.40;;;;;;;;;;5042425;28;20055;-74
2021/07/13 00:38:26;;;;;;;5.45;2.50;;;;;;;;;;5047260;28;20028;-74
2021/07/13 00:40:53;;;;;;;4.93;2.50;;;;;;;;;;5046835;28;20447;-74
2021/07/13 00:43:18;;;;;;;5.88;2.20;;;;;;;;;;5046345;28;20025;-75
2021/07/13 00:45:43;;;;;;;5.18;2.42;;;;;;;;;;5045361;28;20112;-74
2021/07/13 00:48:10;;;;;;;3.15;2.47;;;;;;;;;;5042729;28;20108;-74
2021/07/13 00:50:36;;;;;;;5.78;2.42;;;;;;;;;;5047761;28;20060;-74
2021/07/13 00:53:03;;;;;;;3.97;2.55;;;;;;;;;;5041167;28;20064;-74
2021/07/13 00:55:29;;;;;;;4.63;2.40;;;;;;;;;;5042383;28;20396;-74
2021/07/13 00:57:56;;;;;;;5.53;2.50;;;;;;;;;;5047154;28;20056;-74
2021/07/13 01:00:23;;;;;;;3.42;2.20;;;;;;;;;;5040995;28;20033;-75
2021/07/13 01:02:52;;;;;;;3.80;2.28;;;;;;;;;;5046299;28;20032;-74
2021/07/13 01:05:22;;;;;;;3.40;2.25;;;;;;;;;;5048807;28;20174;-74
2021/07/13 01:07:59;;;;;;;;;;;;;;;;;;5044744;28;20032;-74
2021/07/13 01:10:38;;;;;;;3.08;2.00;;;;;;;;;;5047285;28;19917;-74
2021/07/13 01:13:21;;;;;;;4.55;2.00;;;;;;;;;;5046509;28;20558;-74
2021/07/13 01:15:54;;;;;;;5.30;2.22;;;;;;;;;;5047156;28;20029;-74
2021/07/13 01:18:23;;;;;;;5.00;2.05;;;;;;;;;;5043281;28;20052;-74
2021/07/13 01:21:15;;;;;;;6.15;2.08;;;;;;;;;;5047085;28;20073;-74
2021/07/13 01:24:03;;;;;;;5.10;2.03;;;;;;;;;;5049250;28;20489;-74
2021/07/13 01:27:04;;;;;;;4.70;1.95;;;;;;;;;;5044599;28;20428;-74
2021/07/13 01:29:31;;;;;;;3.05;1.80;;;;;;;;;;5034404;28;20121;-74
2021/07/13 01:31:57;;;;;;;3.85;2.30;;;;;;;;;;5048026;28;20451;-74
2021/07/13 01:34:31;;;;;;;3.08;1.98;;;;;;;;;;5044876;28;20071;-74
2021/07/13 01:37:00;;;;;;;1.85;1.50;;;;;;;;;;5044711;28;20092;-74
2021/07/13 01:39:27;;;;;;;2.50;1.55;;;;;;;;;;5046757;28;20928;-74
2021/07/13 01:41:57;;;;;;;5.47;2.30;;;;;;;;;;5046693;28;20467;-74
2021/07/13 01:44:24;;;;;;;6.90;1.58;;;;;;;;;;5044357;28;20027;-74
2021/07/13 01:46:50;;;;;;;3.90;2.17;;;;;;;;;;5048660;28;20577;-74
2021/07/13 01:49:19;;;;;;;3.85;1.70;;;;;;;;;;5043241;28;20021;-74
2021/07/13 01:51:47;;;;;;;6.75;2.10;;;;;;;;;;5060727;28;20028;-74
2021/07/13 01:54:15;;;;;;;5.47;1.67;;;;;;;;;;5044748;28;20119;-74
2021/07/13 01:56:43;;;;;;;4.35;1.70;;;;;;;;;;5044961;28;20052;-74
2021/07/13 01:59:12;;;;;;;4.07;1.85;;;;;;;;;;5046042;28;20029;-74
2021/07/13 02:01:38;;;;;;;2.67;1.80;;;;;;;;;;5047855;28;20481;-75
2021/07/13 02:04:05;;;;;;;4.70;2.38;;;;;;;;;;5043549;28;20035;-75
2021/07/13 02:06:31;;;;;;;5.93;2.25;;;;;;;;;;5044359;28;20035;-75
2021/07/13 02:09:00;;;;;;;8.52;2.17;;;;;;;;;;5051453;28;20100;-75
2021/07/13 02:11:27;;;;;;;6.15;2.17;;;;;;;;;;5047303;28;20032;-75
2021/07/13 02:13:53;;;;;;;4.88;1.98;;;;;;;;;;5050681;28;20119;-75
2021/07/13 02:16:19;;;;;;;3.25;1.83;;;;;;;;;;5048692;28;20393;-75
2021/07/13 02:18:47;;;;;;;5.97;2.10;;;;;;;;;;5045617;28;20036;-76
2021/07/13 02:21:14;;;;;;;5.35;2.17;;;;;;;;;;5045707;28;20032;-75
2021/07/13 02:23:42;;;;;;;4.32;1.90;;;;;;;;;;5044192;28;20083;-75
2021/07/13 02:26:12;;;;;;;3.97;2.60;;;;;;;;;;5047198;28;20064;-73
2021/07/13 02:28:42;;;;;;;5.88;2.28;;;;;;;;;;5043979;28;20036;-73
2021/07/13 02:31:24;;;;;;;8.32;2.60;;;;;;;;;;5047872;28;20040;-74
2021/07/13 02:33:57;;;;;;;5.80;2.47;;;;;;;;;;5040821;28;20040;-74
2021/07/13 02:36:28;;;;;;;4.07;2.38;;;;;;;;;;5042850;28;20119;-73
2021/07/13 02:38:56;;;;;;;5.78;2.58;;;;;;;;;;5042810;28;20057;-74
2021/07/13 02:41:22;;;;;;;4.40;2.35;;;;;;;;;;5040300;28;20022;-76
2021/07/13 02:43:48;;;;;;;3.63;2.40;;;;;;;;;;5041155;28;20025;-73
2021/07/13 02:46:15;;;;;;;6.07;2.90;;;;;;;;;;5048012;28;20055;-74
2021/07/13 02:48:41;;;;;;;5.90;2.60;;;;;;;;;;5038904;28;20039;-73
2021/07/13 02:51:10;;;;;;;3.75;2.00;;;;;;;;;;5045453;28;20025;-73
2021/07/13 02:53:37;;;;;;;3.65;2.60;;;;;;;;;;5046940;28;20033;-75
2021/07/13 02:56:06;;;;;;;6.40;2.60;;;;;;;;;;5039673;28;20052;-75
2021/07/13 02:58:33;;;;;;;5.13;2.60;;;;;;;;;;5045439;28;20047;-74
2021/07/13 03:00:59;;;;;;;7.35;2.75;;;;;;;;;;5042175;28;20051;-74
2021/07/13 03:03:24;;;;;;;4.45;2.47;;;;;;;;;;5046231;28;20025;-74
2021/07/13 03:05:52;;;;;;;4.32;2.70;;;;;;;;;;5041406;28;20029;-74
2021/07/13 03:08:20;;;;;;;3.72;2.60;;;;;;;;;;5041782;28;20036;-74
2021/07/13 03:10:47;;;;;;;4.15;2.25;;;;;;;;;;5042773;28;20029;-74
2021/07/13 03:13:13;;;;;;;4.43;2.58;;;;;;;;;;5046985;28;20017;-74
2021/07/13 03:15:39;;;;;;;3.83;2.40;;;;;;;;;;5036781;28;20451;-74
2021/07/13 03:18:05;;;;;;;6.13;3.42;;;;;;;;;;5043929;28;20056;-75
2021/07/13 03:20:31;;;;;;;4.45;2.38;;;;;;;;;;5039706;28;20154;-74
2021/07/13 03:22:59;;;;;;;4.53;2.58;;;;;;;;;;5054967;28;20032;-74
2021/07/13 03:25:37;;;;;;;7.93;2.58;;;;;;;;;;5039588;28;20025;-74
2021/07/13 03:28:04;;;;;;;3.67;2.47;;;;;;;;;;5042394;28;20028;-74
2021/07/13 03:30:31;;;;;;;4.60;2.55;;;;;;;;;;5041356;28;20481;-74
2021/07/13 03:32:58;;;;;;;3.70;1.88;;;;;;;;;;5043335;28;20029;-74
2021/07/13 03:35:25;;;;;;;4.00;2.30;;;;;;;;;;5041413;28;20033;-74
2021/07/13 03:37:52;;;;;;;7.18;3.25;;;;;;;;;;5046143;28;20120;-74
2021/07/13 03:40:21;;;;;;;5.13;2.25;;;;;;;;;;5043196;28;20079;-74
2021/07/13 03:42:48;;;;;;;3.17;2.10;;;;;;;;;;5046550;28;20158;-74
2021/07/13 03:45:17;;;;;;;4.22;2.30;;;;;;;;;;5043835;28;20031;-74
2021/07/13 03:47:46;;;;;;;3.70;2.50;;;;;;;;;;5040383;28;20034;-74
2021/07/13 03:50:11;;;;;;;4.17;2.43;;;;;;;;;;5044771;28;20033;-74
2021/07/13 03:52:37;;;;;;;4.40;2.85;;;;;;;;;;5042664;28;20455;-74
2021/07/13 03:55:03;;;;;;;6.13;2.70;;;;;;;;;;5043712;28;20087;-74
2021/07/13 03:57:30;;;;;;;4.22;2.40;;;;;;;;;;5045175;28;20043;-74
2021/07/13 03:59:56;;;;;;;2.65;2.30;;;;;;;;;;5046328;28;20420;-74
2021/07/13 04:02:21;;;;;;;4.32;2.22;;;;;;;;;;5043173;28;20021;-74
2021/07/13 04:04:47;;;;;;;3.17;2.28;;;;;;;;;;5039220;28;20021;-73
2021/07/13 04:07:12;;;;;;;4.93;2.72;;;;;;;;;;5040819;28;20396;-74
2021/07/13 04:09:37;;;;;;;3.53;2.20;;;;;;;;;;5044231;28;20472;-74
2021/07/13 04:12:03;;;;;;;3.70;2.15;;;;;;;;;;5043581;28;20017;-74
2021/07/13 04:14:29;;;;;;;4.70;2.35;;;;;;;;;;5044556;28;20079;-74
2021/07/13 04:16:54;;;;;;;4.13;1.90;;;;;;;;;;5045564;28;20094;-74
2021/07/13 04:19:19;;;;;;;3.42;2.38;;;;;;;;;;5043995;28;20025;-74
2021/07/13 04:21:45;;;;;;;6.55;2.08;;;;;;;;;;5039838;28;20033;-74
2021/07/13 04:24:10;;;;;;;3.28;2.10;;;;;;;;;;5041328;28;20049;-74
2021/07/13 04:26:36;;;;;;;4.50;2.00;;;;;;;;;;5040876;28;20032;-74
2021/07/13 04:29:01;;;;;;;5.43;2.30;;;;;;;;;;5043876;28;20028;-74
2021/07/13 04:31:27;;;;;;;4.28;1.90;;;;;;;;;;5045634;28;20318;-74
2021/07/13 04:33:52;;;;;;;2.47;2.03;;;;;;;;;;5044973;28;20751;-75
2021/07/13 04:36:17;;;;;;;5.22;2.13;;;;;;;;;;5039830;28;20060;-74
2021/07/13 04:38:43;;;;;;;2.83;2.30;;;;;;;;;;5041598;28;20493;-74
2021/07/13 04:41:09;;;;;;;3.13;1.95;;;;;;;;;;5043398;28;20053;-74
2021/07/13 04:43:34;;;;;;;2.38;1.80;;;;;;;;;;5039855;28;20635;-74
2021/07/13 04:46:00;;;;;;;3.08;1.80;;;;;;;;;;5045347;28;20463;-74
2021/07/13 04:48:25;;;;;;;3.17;1.90;;;;;;;;;;5041119;28;20425;-74
2021/07/13 04:50:50;;;;;;;2.55;1.70;;;;;;;;;;5044288;28;20029;-75
2021/07/13 04:53:16;;;;;;;3.95;1.90;;;;;;;;;;5037957;28;20025;-75
2021/07/13 04:55:41;;;;;;;2.90;2.15;;;;;;;;;;5045524;28;20124;-75
2021/07/13 04:58:07;;;;;;;2.78;2.10;;;;;;;;;;5042394;28;20025;-73
2021/07/13 05:00:32;;;;;;;2.35;1.90;;;;;;;;;;5043010;28;20025;-75
2021/07/13 05:02:58;;;;;;;1.92;1.65;;;;;;;;;;5046051;28;20028;-73
2021/07/13 05:05:23;;;;;;;5.10;2.10;;;;;;;;;;5037112;28;20051;-74
2021/07/13 05:07:49;;;;;;;3.65;2.20;;;;;;;;;;5043103;28;20103;-73
2021/07/13 05:10:16;;;;;;;3.42;2.10;;;;;;;;;;5041987;28;20029;-74
2021/07/13 05:12:42;;;;;;;2.22;1.90;;;;;;;;;;5043482;28;20059;-75
2021/07/13 05:15:10;;;;;;;2.03;1.83;;;;;;;;;;5039081;28;20446;-74
2021/07/13 05:17:38;;;;;;;4.53;2.33;;;;;;;;;;5038203;28;20037;-74
2021/07/13 05:20:05;;;;;;;2.88;2.03;;;;;;;;;;5042602;28;20028;-75
2021/07/13 05:22:30;;;;;;;5.18;2.20;;;;;;;;;;5039012;28;20045;-74
2021/07/13 05:24:56;;;;;;;6.15;3.30;;;;;;;;;;5045686;28;20049;-74
2021/07/13 05:27:22;;;;;;;3.78;2.38;;;;;;;;;;5049266;28;20029;-73
2021/07/13 05:29:47;;;;;;;3.45;2.15;;;;;;;;;;5048940;28;20033;-75
2021/07/13 05:32:13;;;;;;;3.58;2.38;;;;;;;;;;5049300;28;20418;-74
2021/07/13 05:34:38;;;;;;;2.97;2.25;;;;;;;;;;5043179;28;20390;-74
2021/07/13 05:37:06;;;;;;;4.82;2.45;;;;;;;;;;5048543;28;20503;-74
2021/07/13 05:39:31;;;;;;;2.75;2.42;;;;;;;;;;5046652;28;20123;-74
2021/07/13 05:41:57;;;;;;;5.80;2.33;;;;;;;;;;5039338;28;20626;-74
2021/07/13 05:44:22;;;;;;;3.35;2.25;;;;;;;;;;5043488;28;20044;-74
2021/07/13 05:46:48;;;;;;;6.68;2.38;;;;;;;;;;5045471;28;20484;-73
2021/07/13 05:49:13;;;;;;;3.45;2.30;;;;;;;;;;5043177;28;20036;-75
2021/07/13 05:51:39;;;;;;;5.13;3.90;;;;;;;;;;5043532;28;20121;-74
2021/07/13 05:54:04;;;;;;;5.28;2.72;;;;;;;;;;5042733;28;20025;-74
2021/07/13 05:56:30;;;;;;;4.97;3.30;;;;;;;;;;5042106;28;20021;-74
2021/07/13 05:58:56;;;;;;;3.60;2.53;;;;;;;;;;5046408;28;20047;-74
2021/07/13 06:01:21;;;;;;;3.50;1.77;;;;;;;;;;5041152;28;20087;-76
2021/07/13 06:03:47;;;;;;;3.63;2.17;;;;;;;;;;5045545;28;20017;-76
2021/07/13 06:06:12;;;;;;;5.15;2.10;;;;;;;;;;5044982;28;20062;-76
2021/07/13 06:08:38;;;;;;;3.90;2.20;;;;;;;;;;5046890;28;20025;-76
2021/07/13 06:11:04;;;;;;;5.45;2.20;;;;;;;;;;5047732;28;20024;-77
2021/07/13 06:13:29;;;;;;;3.17;2.10;;;;;;;;;;5044639;28;20315;-75
2021/07/13 06:15:55;;;;;;;4.72;2.22;;;;;;;;;;5044979;28;20036;-75
2021/07/13 06:18:21;;;;;;;3.15;2.10;;;;;;;;;;5043043;28;20029;-74
2021/07/13 06:20:47;;;;;;;5.53;2.10;;;;;;;;;;5043023;28;20029;-76
2021/07/13 06:23:13;;;;;;;2.97;2.15;;;;;;;;;;5046981;28;20112;-73
2021/07/13 06:25:39;;;;;;;9.38;3.40;;;;;;;;;;5044019;28;20776;-76
2021/07/13 06:28:05;;;;;;;9.68;5.95;;;;;;;;;;5044623;28;20033;-76
2021/07/13 06:30:31;;;;;;;3.85;2.70;;;;;;;;;;5047529;28;20043;-76
2021/07/13 06:32:56;;;;;;;4.55;2.45;;;;;;;;;;5043882;28;20119;-74
2021/07/13 06:35:22;;;;;;;3.65;2.05;;;;;;;;;;5042801;28;20029;-73
2021/07/13 06:37:47;;;;;;;6.75;2.10;;;;;;;;;;5043747;28;20024;-74
2021/07/13 06:40:15;;;;;;;4.70;2.40;;;;;;;;;;5042777;28;20028;-74
2021/07/13 06:42:41;;;;;;;4.68;2.30;;;;;;;;;;5042240;28;20060;-76
2021/07/13 06:45:07;;;;;;;5.00;2.20;;;;;;;;;;5043875;28;20064;-79
2021/07/13 06:47:32;;;;;;;2.65;2.10;;;;;;;;;;5046543;28;20473;-77
2021/07/13 06:49:58;;;;;;;4.60;2.63;;;;;;;;;;5047971;28;20032;-77
2021/07/13 06:52:23;;;;;;;7.38;3.40;;;;;;;;;;5041626;28;20065;-76
2021/07/13 06:54:49;;;;;;;3.22;2.70;;;;;;;;;;5039375;28;20122;-75
2021/07/13 06:57:14;;;;;;;4.65;2.97;;;;;;;;;;5043873;28;20034;-75
2021/07/13 06:59:39;;;;;;;5.43;2.80;;;;;;;;;;5043382;28;20021;-75
2021/07/13 07:02:05;;;;;;;4.28;2.53;;;;;;;;;;5045386;28;20024;-74
2021/07/13 07:04:30;;;;;;;4.72;2.65;;;;;;;;;;5038782;28;20021;-74
2021/07/13 07:06:56;;;;;;;4.22;2.85;;;;;;;;;;5044835;28;20031;-75
2021/07/13 07:09:21;;;;;;;3.90;2.30;;;;;;;;;;5040320;28;20035;-74
2021/07/13 07:11:47;;;;;;;3.92;2.72;;;;;;;;;;5045053;28;20020;-74
2021/07/13 07:14:12;;;;;;;6.32;2.90;;;;;;;;;;5046765;28;20032;-74
2021/07/13 07:16:38;;;;;;;4.95;3.10;;;;;;;;;;5044299;28;20029;-74
2021/07/13 07:19:03;;;;;;;6.50;3.05;;;;;;;;;;5048446;28;20102;-76
2021/07/13 07:21:29;;;;;;;3.85;3.10;;;;;;;;;;5045736;28;20147;-76
2021/07/13 07:23:54;;;;;;;3.33;2.53;;;;;;;;;;5045723;28;20044;-76
2021/07/13 07:26:20;;;;;;;4.53;3.10;;;;;;;;;;5043011;28;20028;-73
2021/07/13 07:28:45;;;;;;;4.53;3.08;;;;;;;;;;5046901;28;20021;-75
2021/07/13 07:31:11;;;;;;;3.85;3.10;;;;;;;;;;5045392;28;20029;-76
2021/07/13 07:33:36;;;;;;;4.55;2.67;;;;;;;;;;5040744;28;20040;-76
2021/07/13 07:36:02;;;;;;;4.20;3.20;;;;;;;;;;5042259;28;20507;-76
2021/07/13 07:38:28;;;;;;;4.60;2.90;;;;;;;;;;5042113;28;20036;-76
2021/07/13 07:40:54;;;;;;;3.17;2.88;;;;;;;;;;5044239;28;20037;-75
2021/07/13 07:43:19;;;;;;;4.10;3.25;;;;;;;;;;5047341;28;20477;-76
2021/07/13 07:45:45;;;;;;;3.97;2.55;;;;;;;;;;5044251;28;20041;-76
2021/07/13 07:48:10;;;;;;;4.45;3.30;;;;;;;;;;5041292;28;20025;-76
2021/07/13 07:50:36;;;;;;;4.05;2.70;;;;;;;;;;5040189;28;20037;-76
2021/07/13 07:53:02;;;;;;;3.22;2.25;;;;;;;;;;5042811;28;20029;-76
2021/07/13 07:55:28;;;;;;;2.40;2.20;;;;;;;;;;5041834;28;20040;-76
2021/07/13 07:57:54;;;;;;;4.53;2.58;;;;;;;;;;5040682;28;20033;-75
2021/07/13 08:00:20;;;;;;;2.95;2.30;;;;;;;;;;5045917;28;20136;-76
2021/07/13 08:02:46;;;;;;;4.50;2.35;;;;;;;;;;5043329;28;20017;-76
2021/07/13 08:05:14;;;;;;;4.05;2.35;;;;;;;;;;5044354;28;20049;-76
2021/07/13 08:07:41;;;;;;;3.00;2.35;;;;;;;;;;5043611;28;20036;-76
2021/07/13 08:10:08;;;;;;;4.95;2.45;;;;;;;;;;5044110;28;20437;-76
2021/07/13 08:12:34;;;;;;;4.75;2.50;;;;;;;;;;5044098;28;20044;-76
2021/07/13 08:14:59;;;;;;;3.70;1.60;;;;;;;;;;5046920;28;20433;-75
2021/07/13 08:17:25;;;;;;;2.35;2.00;;;;;;;;;;5044544;28;20442;-76
2021/07/13 08:19:50;;;;;;;3.70;2.03;;;;;;;;;;5045053;28;20499;-75
2021/07/13 08:22:16;;;;;;;2.50;1.70;;;;;;;;;;5043027;28;20108;-76
2021/07/13 08:24:42;;;;;;;2.63;1.90;;;;;;;;;;5042767;28;20107;-76
2021/07/13 08:27:08;;;;;;;2.40;1.50;;;;;;;;;;5043249;28;20020;-76
2021/07/13 08:29:35;;;;;;;2.10;1.70;;;;;;;;;;5042047;28;20029;-75
2021/07/13 08:32:00;;;;;;;1.73;1.50;;;;;;;;;;5044611;28;20032;-75
2021/07/13 08:34:30;;;;;;;3.15;1.92;;;;;;;;;;5039960;28;20392;-76
2021/07/13 08:36:57;;;;;;;2.33;2.10;;;;;;;;;;5035892;28;20098;-76
2021/07/13 08:39:23;;;;;;;2.60;1.65;;;;;;;;;;5041740;28;20036;-76
2021/07/13 08:41:49;;;;;;;3.22;1.80;;;;;;;;;;5043632;28;20099;-76
2021/07/13 08:44:15;;;;;;;1.70;1.40;;;;;;;;;;5040464;28;20370;-77
2021/07/13 08:46:41;;;;;;;2.47;1.63;;;;;;;;;;5040060;28;20029;-75
2021/07/13 08:49:09;;;;;;;1.50;1.38;;;;;;;;;;5043651;28;20471;-76
2021/07/13 08:51:35;;;;;;;1.95;1.50;;;;;;;;;;5034721;28;20033;-77
2021/07/13 08:54:03;;;;;;;1.40;1.35;;;;;;;;;;5040367;28;20056;-76
2021/07/13 08:56:34;;;;;;;1.73;1.40;;;;;;;;;;5042511;28;20407;-76
2021/07/13 08:59:01;;;;;;;1.95;1.33;;;;;;;;;;5042214;28;20079;-76
2021/07/13 09:01:26;;;;;;;1.73;1.40;;;;;;;;;;5040493;28;20053;-76
2021/07/13 09:03:56;;;;;;;1.77;1.50;;;;;;;;;;5049199;28;20057;-76
2021/07/13 09:06:24;;;;;;;2.55;1.20;;;;;;;;;;5047180;28;20120;-76
2021/07/13 09:08:49;;;;;;;1.20;1.10;;;;;;;;;;5043627;28;20032;-75
2021/07/13 09:11:18;;;;;;;2.05;1.20;;;;;;;;;;5045205;28;20025;-76
2021/07/13 09:13:53;;;;;;;1.20;1.10;;;;;;;;;;5044686;28;20052;-76
2021/07/13 09:16:24;;;;;;;1.45;1.10;;;;;;;;;;5043398;28;20484;-76
2021/07/13 09:18:51;;;;;;;1.80;1.10;;;;;;;;;;5046328;28;20097;-76
2021/07/13 09:21:33;;;;;;;1.35;1.27;;;;;;;;;;5047122;28;20754;-77
2021/07/13 09:24:21;;;;;;;0.77;0.73;;;;;;;;;;5044456;28;20021;-77
2021/07/13 09:26:55;;;;;;;0.30;0.30;;;;;;;;;;5045073;28;20032;-79
2021/07/13 09:29:36;;;;;;;0.73;0.40;;;;;;;;;;5039044;28;20032;-77
2021/07/13 09:32:29;;;;;;;0.57;0.50;;;;;;;;;;5041729;28;20120;-77
2021/07/13 09:35:01;;;;;;;0.55;0.50;;;;;;;;;;5042996;28;20500;-78
2021/07/13 09:37:28;;;;;;;1.00;0.60;;;;;;;;;;5048284;28;20111;-77
2021/07/13 09:40:11;;;;;;;0.50;0.50;;;;;;;;;;5048393;28;20481;-77
2021/07/13 09:42:51;;;;;;;0.40;0.40;;;;;;;;;;5044075;28;20552;-77
2021/07/13 09:45:27;;;;;;;0.40;0.40;;;;;;;;;;5046919;28;20564;-76
2021/07/13 09:47:57;;;;;;;0.55;0.50;;;;;;;;;;5043261;28;20028;-77
2021/07/13 09:50:39;;;;;;;0.38;0.38;;;;;;;;;;5045710;28;20033;-77
2021/07/13 09:53:07;;;;;;;1.45;0.70;;;;;;;;;;5063359;28;20424;-76
2021/07/13 09:55:33;;;;;;;0.35;0.35;;;;;;;;;;5043896;28;20032;-76
2021/07/13 09:58:27;;;;;;;0.68;0.50;;;;;;;;;;5039801;28;20021;-76
2021/07/13 10:00:58;;;;;;;1.25;0.45;;;;;;;;;;5045960;28;20030;-76
2021/07/13 10:03:24;;;;;;;0.30;0.30;;;;;;;;;;5045578;28;20400;-77
2021/07/13 10:05:52;;;;;;;2.20;0.70;;;;;;;;;;5044050;28;20119;-76
2021/07/13 10:08:19;;;;;;;0.95;0.60;;;;;;;;;;5043047;28;20029;-76
2021/07/13 10:10:46;;;;;;;1.27;0.57;;;;;;;;;;5034612;28;20025;-76
2021/07/13 10:13:13;;;;;;;0.40;0.40;;;;;;;;;;5043775;28;20795;-76
2021/07/13 10:15:42;;;;;;;0.40;0.40;;;;;;;;;;5042360;28;20036;-76
2021/07/13 10:18:08;;;;;;;;;;;;;;;;;;5043108;28;20028;-76
2021/07/13 10:20:35;;;;;;;2.00;0.70;;;;;;;;;;5044894;28;20280;-76
2021/07/13 10:23:03;;;;;;;0.40;0.40;;;;;;;;;;5044336;28;20094;-76
2021/07/13 10:25:40;;;;;;;0.85;0.40;;;;;;;;;;5044831;28;20032;-75
2021/07/13 10:28:06;;;;;;;1.75;0.50;;;;;;;;;;5045513;28;20461;-76
2021/07/13 10:30:32;;;;;;;0.40;0.40;;;;;;;;;;5046881;28;20032;-76
2021/07/13 10:32:58;;;;;;;0.60;0.60;;;;;;;;;;5048369;28;20493;-76
2021/07/13 10:35:32;;;;;;;0.40;0.40;;;;;;;;;;5048419;28;20036;-76
2021/07/13 10:38:23;;;;;;;0.63;0.55;;;;;;;;;;5043035;28;20031;-76
2021/07/13 10:40:51;;;;;;;1.80;0.40;;;;;;;;;;5045313;28;20029;-75
2021/07/13 10:43:19;;;;;;;0.47;0.45;;;;;;;;;;5047460;28;20036;-75
2021/07/13 10:45:46;;;;;;;0.50;0.50;;;;;;;;;;5058202;28;20518;-75
2021/07/13 10:48:13;;;;;;;0.50;0.50;;;;;;;;;;5046419;28;20036;-76
2021/07/13 10:50:48;;;;;;;0.43;0.43;;;;;;;;;;5046291;28;20041;-75
2021/07/13 10:53:32;;;;;;;0.63;0.60;;;;;;;;;;5039653;28;20098;-76
2021/07/13 10:56:12;;;;;;;0.82;0.43;;;;;;;;;;5045850;28;20028;-76
2021/07/13 10:58:49;;;;;;;0.68;0.68;;;;;;;;;;5043974;28;20036;-75
2021/07/13 11:01:18;;;;;;;0.70;0.70;;;;;;;;;;5041609;28;20035;-75
2021/07/13 11:03:48;;;;;;;0.60;0.60;;;;;;;;;;5043938;28;20029;-75
2021/07/13 11:06:18;;;;;;;1.08;0.77;;;;;;;;;;5046567;28;20026;-75
2021/07/13 11:08:44;;;;;;;0.60;0.60;;;;;;;;;;5038858;28;20112;-75
2021/07/13 11:11:18;;;;;;;0.73;0.60;;;;;;;;;;5042826;28;20572;-77
2021/07/13 11:13:46;;;;;;;0.50;0.50;;;;;;;;;;5041959;28;20629;-77
2021/07/13 11:16:14;;;;;;;0.50;0.50;;;;;;;;;;5036728;28;20029;-77
2021/07/13 11:18:41;;;;;;;1.65;0.70;;;;;;;;;;5044631;28;20113;-77
2021/07/13 11:21:19;;;;;;;0.50;0.50;;;;;;;;;;5044017;28;20029;-77
2021/07/13 11:23:50;;;;;;;2.67;0.70;;;;;;;;;;5043920;28;20026;-76
2021/07/13 11:26:16;;;;;;;1.23;0.50;;;;;;;;;;5043727;28;20032;-77
2021/07/13 11:28:49;;;;;;;0.43;0.43;;;;;;;;;;5041999;28;20119;-76
2021/07/13 11:31:22;;;;;;;0.50;0.50;;;;;;;;;;5042359;28;20431;-76
2021/07/13 11:33:56;;;;;;;0.40;0.40;;;;;;;;;;5042153;28;20026;-76
2021/07/13 11:36:31;;;;;;;0.90;0.60;;;;;;;;;;5040805;28;20037;-75
2021/07/13 11:39:01;;;;;;;0.50;0.50;;;;;;;;;;5045773;28;20104;-76
2021/07/13 11:41:28;;;;;;;0.77;0.50;;;;;;;;;;5044292;28;20404;-77
2021/07/13 11:43:56;;;;;;;1.05;0.70;;;;;;;;;;5046983;28;20028;-76
2021/07/13 11:46:27;;;;;;;0.75;0.75;;;;;;;;;;5042283;28;20112;-76
2021/07/13 11:49:06;;;;;;;0.82;0.82;;;;;;;;;;5040765;28;20032;-76
2021/07/13 11:51:36;;;;;;;;;;;;;;;;;;5058290;28;20443;-76
2021/07/13 11:54:14;;;;;;;0.90;0.80;;;;;;;;;;5039764;28;19917;-75
2021/07/13 11:56:43;;;;;;;0.70;0.70;;;;;;;;;;5045945;28;20032;-77
2021/07/13 11:59:09;;;;;;;1.00;0.70;;;;;;;;;;5044676;28;20524;-77
2021/07/13 12:01:37;;;;;;;0.60;0.60;;;;;;;;;;5044427;28;20075;-78
2021/07/13 12:04:07;;;;;;;0.60;0.60;;;;;;;;;;5045505;28;20032;-77
2021/07/13 12:06:35;;;;;;;0.77;0.77;;;;;;;;;;5039416;28;20025;-76
2021/07/13 12:09:09;;;;;;;0.60;0.60;;;;;;;;;;5045882;28;20496;-74
2021/07/13 12:11:36;;;;;;;0.68;0.68;;;;;;;;;;5041392;28;20055;-75
2021/07/13 12:14:03;;;;;;;0.60;0.60;;;;;;;;;;5040182;28;20059;-75
2021/07/13 12:16:31;;;;;;;0.80;0.80;;;;;;;;;;5043374;28;20059;-76
2021/07/13 12:18:59;;;;;;;1.20;0.73;;;;;;;;;;5040285;28;20029;-76
2021/07/13 12:21:25;;;;;;;0.85;0.82;;;;;;;;;;5044496;28;20024;-76
2021/07/13 12:23:52;;;;;;;1.05;0.95;;;;;;;;;;5043864;28;20029;-74
2021/07/13 12:26:30;;;;;;;0.70;0.70;;;;;;;;;;5045288;28;20029;-76
2021/07/13 12:29:44;;;;;;;0.90;0.90;;;;;;;;;;5040135;28;20047;-77
2021/07/13 12:32:20;;;;;;;0.80;0.80;;;;;;;;;;5058142;28;20033;-74
2021/07/13 12:34:47;;;;;;;1.00;0.70;;;;;;;;;;5046785;28;20036;-76
2021/07/13 12:37:16;;;;;;;0.98;0.80;;;;;;;;;;5049781;28;20021;-74
2021/07/13 12:39:47;;;;;;;0.70;0.70;;;;;;;;;;5046909;28;20033;-75
2021/07/13 12:42:24;;;;;;;1.33;0.70;;;;;;;;;;5046264;28;20056;-76
2021/07/13 12:44:49;;;;;;;1.33;0.88;;;;;;;;;;5044886;28;20033;-74
2021/07/13 12:47:20;;;;;;;0.77;0.70;;;;;;;;;;5051077;28;20031;-76
2021/07/13 12:49:59;;;;;;;0.80;0.80;;;;;;;;;;5038524;28;20026;-77
2021/07/13 12:52:38;;;;;;;;;;;;;;;;;;5042887;28;20025;-77
2021/07/13 12:55:09;;;;;;;0.70;0.70;;;;;;;;;;5043395;28;19921;-78
2021/07/13 12:57:39;;;;;;;1.48;0.80;;;;;;;;;;5047724;28;20097;-78
2021/07/13 13:00:04;;;;;;;0.70;0.70;;;;;;;;;;5046233;28;20025;-78
2021/07/13 13:02:30;;;;;;;1.35;1.00;;;;;;;;;;5043731;28;20029;-76
2021/07/13 13:04:55;;;;;;;0.82;0.70;;;;;;;;;;5043947;28;20025;-78
2021/07/13 13:07:22;;;;;;;1.00;0.80;;;;;;;;;;5048167;28;20032;-77
2021/07/13 13:09:48;;;;;;;1.10;0.80;;;;;;;;;;5045659;28;20033;-77
2021/07/13 13:12:14;;;;;;;1.02;0.93;;;;;;;;;;5045351;28;20027;-78
2021/07/13 13:14:39;;;;;;;1.50;1.00;;;;;;;;;;5043638;28;20157;-77
2021/07/13 13:17:06;;;;;;;0.82;0.80;;;;;;;;;;5048695;28;20401;-78
2021/07/13 13:19:33;;;;;;;1.33;0.80;;;;;;;;;;5038380;28;20064;-80
2021/07/13 13:21:59;;;;;;;3.30;0.90;;;;;;;;;;5040787;28;20139;-78
2021/07/13 13:24:24;;;;;;;1.05;0.90;;;;;;;;;;5047132;28;20549;-78
2021/07/13 13:26:50;;;;;;;0.80;0.80;;;;;;;;;;5043251;28;20029;-76
2021/07/13 13:29:15;;;;;;;0.70;0.70;;;;;;;;;;5044487;28;20032;-77
2021/07/13 13:31:41;;;;;;;2.55;0.93;;;;;;;;;;5043918;28;20115;-77
2021/07/13 13:34:06;;;;;;;1.67;0.80;;;;;;;;;;5045629;28;20435;-77
2021/07/13 13:36:40;;;;;;;0.90;0.90;;;;;;;;;;5040989;28;20118;-76
2021/07/13 13:39:15;;;;;;;1.10;1.00;;;;;;;;;;5047489;28;20480;-79
2021/07/13 13:41:44;;;;;;;3.65;0.70;;;;;;;;;;5044360;28;20496;-78
2021/07/13 13:44:10;;;;;;;0.95;0.85;;;;;;;;;;5045590;28;20028;-78
2021/07/13 13:46:36;;;;;;;0.60;0.60;;;;;;;;;;5043907;28;20489;-78
2021/07/13 13:49:01;;;;;;;2.13;0.85;;;;;;;;;;5045611;28;20085;-78
2021/07/13 13:51:26;;;;;;;1.40;0.88;;;;;;;;;;5044412;28;20060;-78
2021/07/13 13:53:52;;;;;;;1.20;0.95;;;;;;;;;;5039130;28;20461;-78
2021/07/13 13:56:21;;;;;;;1.48;0.90;;;;;;;;;;5046569;28;20063;-84
2021/07/13 13:58:47;;;;;;;1.27;0.93;;;;;;;;;;5045518;28;20036;-82
2021/07/13 14:01:14;;;;;;;2.17;0.77;;;;;;;;;;5041501;28;20040;-80
2021/07/13 14:03:40;;;;;;;1.05;0.80;;;;;;;;;;5045100;28;20058;-77
2021/07/13 14:06:07;;;;;;;4.88;1.10;;;;;;;;;;5040969;28;20037;-77
2021/07/13 14:08:34;;;;;;;1.80;0.80;;;;;;;;;;5041584;28;20033;-77
2021/07/13 14:11:00;;;;;;;4.35;0.98;;;;;;;;;;5046778;28;20025;-79
2021/07/13 14:13:26;;;;;;;1.42;0.90;;;;;;;;;;5046028;28;20021;-80
2021/07/13 14:15:51;;;;;;;2.00;1.80;;;;;;;;;;5046309;28;20039;-79
2021/07/13 14:18:16;;;;;;;1.63;1.40;;;;;;;;;;5046335;28;20473;-79
2021/07/13 14:20:42;;;;;;;1.00;0.90;;;;;;;;;;5042656;28;20440;-79
2021/07/13 14:23:08;;;;;;;0.93;0.82;;;;;;;;;;5042625;28;20637;-80
2021/07/13 14:25:33;;;;;;;0.80;0.80;;;;;;;;;;5044146;28;20053;-79
2021/07/13 14:27:59;;;;;;;1.85;0.95;;;;;;;;;;5042335;28;20559;-79
2021/07/13 14:30:24;;;;;;;1.42;1.02;;;;;;;;;;5043338;28;20025;-80
2021/07/13 14:32:51;;;;;;;0.90;0.90;;;;;;;;;;5046671;28;20388;-79
2021/07/13 14:35:17;;;;;;;0.98;0.70;;;;;;;;;;5045286;28;20036;-79
2021/07/13 14:37:43;;;;;;;0.70;0.70;;;;;;;;;;5044472;28;20029;-80
2021/07/13 14:40:10;;;;;;;0.70;0.65;;;;;;;;;;5045819;28;20055;-79
2021/07/13 14:42:35;;;;;;;1.10;0.80;;;;;;;;;;5042554;28;20025;-79
2021/07/13 14:45:01;;;;;;;0.98;0.80;;;;;;;;;;5045290;28;20087;-79
2021/07/13 14:47:28;;;;;;;1.20;1.10;;;;;;;;;;5046479;28;20032;-79
2021/07/13 14:49:54;;;;;;;1.38;1.10;;;;;;;;;;5045506;28;20113;-83